64FA weather

Naked Lady Ranch Airport
Stuart, Florida, United States

Public forecast

Using degrees Fahrenheit for public forecast. Weather courtesy of forecast.io.

METAR (pilot weather report)

Closest report is Witham Field, 6.7 nm (12.3 km) ENE. Retrieved 2019/06/19 17:47 UTC (46 minutes ago):

KSUA 191747Z 17005KT 7SM VCTS-RA SCT015 BKN030 25/22 A3005

TAF (pilot weather forecast)

Closest forecast is Witham Field, 6.7 nm (12.3 km) ENE. Retrieved 2019/06/19 18:28 UTC (5 minutes ago):

TAF KSUA 191725Z 1918/2018 20010G18KT P6SM VCTS SCT035CB BKN250 TEMPO 1920/1922 VRB15G30KT 3SM TSRA BKN030CB FM200100 21004KT P6SM FEW035 SCT080 BKN250